Time;durP1;ratioP1;P1;durP2;ratioP2;P2;SDS_P1;SDS_P2;PMS_P1;PMS_P2;Temp;Humidity;BMP_temperature;BMP_pressure;BME280_temperature;BME280_humidity;BME280_pressure;Samples;Min_cycle;Max_cycle;Signal;HPM_P1;HPM_P2
2023/08/11 00:01:39;;;;;;;;;11.33;11.00;;;;;;;;5038748;28;45540;-71
2023/08/11 00:04:06;;;;;;;;;13.00;11.33;;;;;24.39;55.19;101471.47;5035598;28;46203;-70
2023/08/11 00:06:32;;;;;;;;;14.00;13.00;;;;;24.27;55.47;101454.13;5036025;28;45506;-72
2023/08/11 00:08:58;;;;;;;;;16.33;13.67;;;;;24.21;55.08;101446.41;5036592;28;45902;-71
2023/08/11 00:11:24;;;;;;;;;13.33;13.33;;;;;24.30;55.40;101462.94;5035671;28;45661;-70
2023/08/11 00:13:50;;;;;;;;;16.00;15.00;;;;;24.21;55.81;101463.31;5036612;28;46062;-70
2023/08/11 00:16:16;;;;;;;;;16.33;15.33;;;;;24.13;55.67;101455.63;5034736;28;45612;-71
2023/08/11 00:18:41;;;;;;;;;13.33;12.67;;;;;24.12;55.81;101459.22;5036795;28;45604;-72
2023/08/11 00:21:07;;;;;;;;;14.00;12.00;;;;;23.93;55.74;101436.88;5039284;28;45533;-72
2023/08/11 00:23:39;;;;;;;;;13.33;11.00;;;;;24.04;55.98;101444.47;5038112;28;45649;-72
2023/08/11 00:26:06;;;;;;;;;12.00;12.00;;;;;24.07;56.07;101461.22;5038030;28;45399;-70
2023/08/11 00:28:32;;;;;;;;;12.67;12.67;;;;;24.02;56.09;101463.25;5038281;28;45381;-71
2023/08/11 00:31:05;;;;;;;;;12.67;12.67;;;;;23.97;56.14;101472.41;5039326;28;45433;-71
2023/08/11 00:33:30;;;;;;;;;18.67;12.00;;;;;23.81;56.50;101440.06;5037241;28;47745;-71
2023/08/11 00:35:57;;;;;;;;;13.33;13.00;;;;;23.83;56.70;101447.09;5038361;28;45908;-73
2023/08/11 00:38:26;;;;;;;;;10.00;10.00;;;;;23.87;56.72;101470.13;5038584;28;45444;-71
2023/08/11 00:40:51;;;;;;;;;12.67;11.00;;;;;23.79;56.33;101440.13;5037651;28;45456;-71
2023/08/11 00:43:18;;;;;;;;;13.33;12.33;;;;;23.92;56.43;101459.22;5038185;28;46610;-71
2023/08/11 00:45:45;;;;;;;;;13.00;10.33;;;;;23.91;56.46;101452.97;5038237;28;45508;-71
2023/08/11 00:48:10;;;;;;;;;11.33;11.33;;;;;23.84;56.86;101445.28;5037069;28;45442;-71
2023/08/11 00:50:36;;;;;;;;;13.33;11.67;;;;;23.67;56.72;101433.47;5051674;28;45401;-71
2023/08/11 00:53:03;;;;;;;;;11.00;10.33;;;;;23.63;57.28;101429.19;5036731;28;45940;-70
2023/08/11 00:55:29;;;;;;;;;9.67;8.00;;;;;23.73;56.88;101444.81;5037813;28;45374;-70
2023/08/11 00:57:54;;;;;;;;;11.00;9.67;;;;;23.54;57.41;101429.56;5036010;28;45469;-69
2023/08/11 01:00:21;;;;;;;;;11.00;11.00;;;;;23.65;57.32;101442.47;5036903;28;45460;-71
2023/08/11 01:02:46;;;;;;;;;11.67;10.00;;;;;23.57;57.27;101447.28;5035756;28;46045;-71
2023/08/11 01:05:14;;;;;;;;;9.00;9.00;;;;;23.68;57.26;101450.38;5036962;28;45456;-71
2023/08/11 01:07:58;;;;;;;;;14.67;11.33;;;;;23.66;57.40;101455.81;5036832;28;45829;-71
2023/08/11 01:10:38;;;;;;;;;10.33;10.00;;;;;23.65;57.23;101448.69;5037500;28;45603;-71
2023/08/11 01:13:15;;;;;;;;;11.00;9.33;;;;;23.59;57.31;101443.63;5036573;28;45982;-70
2023/08/11 01:15:48;;;;;;;;;10.00;10.00;;;;;23.55;57.78;101447.34;5035359;28;45517;-72
2023/08/11 01:18:14;;;;;;;;;13.00;11.33;;;;;23.55;57.78;101455.38;5036626;28;46370;-71
2023/08/11 01:20:40;;;;;;;;;15.67;10.00;;;;;23.46;58.00;101439.69;5052590;28;45460;-72
2023/08/11 01:23:07;;;;;;;;;11.00;9.00;;;;;23.51;57.90;101464.44;5032003;28;47630;-70
2023/08/11 01:25:37;;;;;;;;;11.67;9.67;;;;;23.52;58.03;101458.16;5036067;28;45644;-70
2023/08/11 01:28:02;;;;;;;;;13.00;11.33;;;;;23.51;58.46;101467.09;5051205;28;46600;-72
2023/08/11 01:30:29;;;;;;;;;11.33;11.00;;;;;23.50;58.08;101460.03;5037198;28;45462;-71
2023/08/11 01:32:56;;;;;;;;;13.67;10.33;;;;;23.43;58.32;101455.88;5052449;28;45563;-71
2023/08/11 01:35:22;;;;;;;;;11.67;10.00;;;;;23.44;58.39;101462.94;5037207;28;45594;-72
2023/08/11 01:37:48;;;;;;;;;10.00;10.00;;;;;23.38;58.34;101461.41;5037179;28;45486;-71
2023/08/11 01:40:14;;;;;;;;;13.67;11.00;;;;;23.35;58.46;101464.19;5038834;28;45334;-71
2023/08/11 01:42:42;;;;;;;;;12.00;12.00;;;;;23.37;58.68;101474.81;5037202;28;45539;-70
2023/08/11 01:45:09;;;;;;;;;12.00;11.33;;;;;23.27;58.75;101472.50;5035860;28;45382;-71
2023/08/11 01:47:44;;;;;;;;;8.33;8.33;;;;;23.33;58.72;101478.56;5037950;28;45421;-71
2023/08/11 01:50:11;;;;;;;;;12.33;9.00;;;;;23.33;58.70;101478.56;5039970;28;45504;-71
2023/08/11 01:52:42;;;;;;;;;15.33;10.33;;;;;23.39;58.66;101481.84;5039164;28;45563;-72
2023/08/11 01:55:10;;;;;;;;;11.67;11.67;;;;;23.39;58.61;101484.50;5037496;28;45581;-70
2023/08/11 01:57:38;;;;;;;;;13.00;11.00;;;;;23.36;58.41;101489.13;5037965;28;45487;-72
2023/08/11 02:00:09;;;;;;;;;11.00;9.00;;;;;23.28;58.83;101486.75;5037325;28;45423;-71
2023/08/11 02:02:37;;;;;;;;;11.33;11.33;;;;;23.24;58.94;101494.00;5036508;28;46289;-71
2023/08/11 02:05:15;;;;;;;;;11.00;11.00;;;;;23.16;59.13;101479.19;5037036;28;45551;-70
2023/08/11 02:07:41;;;;;;;;;12.33;12.33;;;;;23.18;59.18;101488.91;5038832;28;45442;-71
2023/08/11 02:10:08;;;;;;;;;15.00;13.33;;;;;23.11;59.70;101483.84;5038035;28;45448;-71
2023/08/11 02:12:34;;;;;;;;;15.67;12.67;;;;;23.11;59.56;101487.38;5036531;28;45457;-71
2023/08/11 02:15:00;;;;;;;;;13.67;10.00;;;;;23.11;59.15;101478.50;5036571;28;45723;-70
2023/08/11 02:17:26;;;;;;;;;13.33;13.00;;;;;23.04;59.57;101468.06;5037263;28;45484;-70
2023/08/11 02:19:53;;;;;;;;;14.67;11.00;;;;;23.06;59.37;101476.00;5036997;28;45408;-71
2023/08/11 02:22:20;;;;;;;;;12.33;11.00;;;;;22.96;59.66;101469.25;5037054;28;46686;-70
2023/08/11 02:24:46;;;;;;;;;13.67;11.67;;;;;22.85;60.06;101462.53;5036664;28;45478;-70
2023/08/11 02:27:13;;;;;;;;;14.00;10.00;;;;;22.90;59.95;101481.06;5038344;28;45511;-69
2023/08/11 02:29:38;;;;;;;;;9.33;8.00;;;;;22.92;59.87;101472.97;5036766;28;45820;-70
2023/08/11 02:32:04;;;;;;;;;11.33;10.67;;;;;22.96;60.08;101475.44;5036496;28;47792;-70
2023/08/11 02:34:34;;;;;;;;;9.67;9.33;;;;;22.84;60.20;101452.75;5037512;28;45394;-71
2023/08/11 02:37:00;;;;;;;;;13.33;10.00;;;;;22.72;59.94;101429.19;5036068;28;45597;-70
2023/08/11 02:39:26;;;;;;;;;13.33;10.67;;;;;22.37;59.63;101383.31;5036806;28;45532;-72
2023/08/11 02:41:52;;;;;;;;;9.33;8.33;;;;;22.40;59.93;101398.34;5035830;28;46160;-71
2023/08/11 02:44:18;;;;;;;;;13.33;10.33;;;;;22.86;59.93;101461.59;5036287;28;45406;-71
2023/08/11 02:46:43;;;;;;;;;12.33;10.67;;;;;22.89;60.40;101478.44;5037509;28;45409;-71
2023/08/11 02:49:09;;;;;;;;;13.67;12.67;;;;;22.68;60.53;101438.22;5036402;28;45393;-71
2023/08/11 02:51:34;;;;;;;;;11.67;11.00;;;;;22.72;60.39;101441.69;5035863;28;45719;-71
2023/08/11 02:54:01;;;;;;;;;10.00;9.00;;;;;22.91;60.44;101476.56;5036293;28;45621;-69
2023/08/11 02:56:27;;;;;;;;;12.67;10.67;;;;;22.91;60.38;101484.59;5036443;28;45512;-70
2023/08/11 02:58:56;;;;;;;;;11.33;11.33;;;;;22.80;60.44;101471.63;5036497;28;45466;-72
2023/08/11 03:01:25;;;;;;;;;11.00;10.00;;;;;22.80;60.74;101475.19;5035662;28;45575;-70
2023/08/11 03:03:52;;;;;;;;;13.67;13.00;;;;;22.74;60.83;101472.72;5036283;28;45419;-69
2023/08/11 03:06:18;;;;;;;;;11.00;11.00;;;;;22.76;60.84;101473.53;5034651;28;45300;-70
2023/08/11 03:08:43;;;;;;;;;10.67;9.33;;;;;22.74;61.24;101480.75;5035959;28;45521;-70
2023/08/11 03:11:09;;;;;;;;;11.67;10.33;;;;;22.73;61.09;101478.13;5035540;28;45948;-71
2023/08/11 03:13:35;;;;;;;;;13.33;12.67;;;;;22.70;60.92;101480.91;5035929;28;45464;-70
2023/08/11 03:16:01;;;;;;;;;15.67;14.00;;;;;22.55;61.55;101469.00;5035753;28;45822;-71
2023/08/11 03:18:27;;;;;;;;;12.00;11.00;;;;;22.66;61.41;101480.16;5036752;28;45582;-71
2023/08/11 03:20:53;;;;;;;;;12.00;12.00;;;;;22.67;61.81;101483.69;5035933;28;45449;-70
2023/08/11 03:23:19;;;;;;;;;13.67;12.00;;;;;22.63;61.70;101477.59;5035726;28;45460;-69
2023/08/11 03:25:45;;;;;;;;;12.67;12.67;;;;;22.63;61.84;101485.59;5035839;28;45535;-69
2023/08/11 03:28:10;;;;;;;;;13.00;13.00;;;;;22.41;61.98;101457.00;5035780;28;45311;-71
2023/08/11 03:30:36;;;;;;;;;10.33;10.33;;;;;22.38;62.34;101462.47;5034108;28;46467;-72
2023/08/11 03:33:03;;;;;;;;;13.33;13.00;;;;;22.47;62.30;101489.75;5037035;28;45440;-70
2023/08/11 03:35:29;;;;;;;;;15.00;13.33;;;;;22.32;62.73;101477.81;5034820;28;45526;-70
2023/08/11 03:37:55;;;;;;;;;14.67;13.33;;;;;22.25;63.17;101471.81;5036408;28;45505;-71
2023/08/11 03:40:21;;;;;;;;;15.33;14.33;;;;;22.33;62.82;101482.22;5035965;28;45924;-69
2023/08/11 03:42:47;;;;;;;;;18.67;17.33;;;;;22.35;63.17;101493.72;5035068;28;45495;-70
2023/08/11 03:45:13;;;;;;;;;24.00;19.67;;;;;22.15;63.30;101465.91;5036382;28;45481;-71
2023/08/11 03:47:40;;;;;;;;;19.67;18.00;;;;;22.26;63.35;101480.69;5036998;28;45492;-70
2023/08/11 03:50:06;;;;;;;;;23.00;19.67;;;;;22.19;63.34;101486.22;5036583;28;45480;-70
2023/08/11 03:52:33;;;;;;;;;23.00;20.00;;;;;22.05;63.55;101469.81;5036684;28;45342;-71
2023/08/11 03:54:58;;;;;;;;;17.33;16.33;;;;;22.13;63.92;101477.56;5036427;28;45334;-70
2023/08/11 03:57:25;;;;;;;;;17.67;16.33;;;;;22.15;63.58;101468.56;5035699;28;45845;-70
2023/08/11 03:59:52;;;;;;;;;17.00;15.33;;;;;22.19;63.47;101472.03;5023927;28;45538;-70
2023/08/11 04:02:17;;;;;;;;;24.00;19.00;;;;;22.25;63.34;101476.28;5036443;28;45438;-70
2023/08/11 04:04:47;;;;;;;;;17.00;16.33;;;;;22.08;63.21;101435.03;5033645;28;45432;-71
2023/08/11 04:07:13;;;;;;;;;15.00;14.33;;;;;22.18;63.60;101462.25;5035832;28;45435;-71
2023/08/11 04:09:44;;;;;;;;;19.00;17.33;;;;;22.07;63.79;101453.75;5036662;28;46324;-70
2023/08/11 04:12:10;;;;;;;;;17.00;15.00;;;;;22.20;63.54;101471.97;5038703;28;45611;-71
2023/08/11 04:14:39;;;;;;;;;20.00;17.00;;;;;22.20;63.78;101468.41;5038535;28;45160;-71
2023/08/11 04:17:04;;;;;;;;;16.67;14.33;;;;;22.19;63.66;101461.34;5039104;28;45495;-71
2023/08/11 04:19:31;;;;;;;;;15.00;12.67;;;;;22.05;64.19;101467.16;5038817;28;45910;-68
2023/08/11 04:21:57;;;;;;;;;22.00;20.00;;;;;21.77;64.63;101428.06;5038638;28;45486;-68
2023/08/11 04:24:29;;;;;;;;;19.33;16.67;;;;;21.90;64.74;101459.66;5038535;28;45392;-67
2023/08/11 04:26:58;;;;;;;;;18.33;14.33;;;;;21.89;64.84;101460.59;5038857;28;45508;-68
2023/08/11 04:29:31;;;;;;;;;16.00;12.67;;;;;21.85;65.01;101441.13;5038860;28;46223;-68
2023/08/11 04:31:57;;;;;;;;;10.00;9.67;;;;;21.97;64.77;101454.09;5039014;28;45404;-72
2023/08/11 04:34:22;;;;;;;;;19.67;12.33;;;;;21.88;64.65;101441.06;5054721;28;45560;-71
2023/08/11 04:36:48;;;;;;;;;15.00;14.00;;;;;21.91;64.67;101448.09;5038258;28;45279;-72
2023/08/11 04:39:15;;;;;;;;;16.33;15.33;;;;;21.95;64.65;101463.94;5038801;28;46092;-72
2023/08/11 04:41:42;;;;;;;;;19.33;16.67;;;;;21.89;65.46;101469.47;5037406;28;45516;-70
2023/08/11 04:44:10;;;;;;;;;16.33;15.67;;;;;21.76;65.24;101453.00;5054717;28;45431;-70
2023/08/11 04:46:36;;;;;;;;;14.00;13.67;;;;;21.80;65.56;101464.44;5038856;28;45706;-72
2023/08/11 04:49:06;;;;;;;;;13.33;13.33;;;;;21.74;65.37;101454.00;5038796;28;45762;-73
2023/08/11 04:51:32;;;;;;;;;19.00;16.00;;;;;21.80;65.57;101459.97;5037354;28;45519;-72
2023/08/11 04:54:02;;;;;;;;;18.67;15.67;;;;;21.58;65.73;101441.16;5037661;28;45531;-72
2023/08/11 04:56:28;;;;;;;;;14.00;12.33;;;;;21.73;65.89;101469.09;5038191;28;45505;-70
2023/08/11 04:58:57;;;;;;;;;15.33;12.33;;;;;21.72;65.91;101477.16;5053347;28;46276;-71
2023/08/11 05:01:23;;;;;;;;;14.67;14.67;;;;;21.74;66.01;101469.97;5036811;28;45485;-72
2023/08/11 05:03:53;;;;;;;;;16.67;15.33;;;;;21.50;66.23;101439.66;5037185;28;45477;-72
2023/08/11 05:06:24;;;;;;;;;14.33;13.67;;;;;21.65;66.33;101468.47;5038811;28;45471;-71
2023/08/11 05:08:50;;;;;;;;;17.00;14.67;;;;;21.41;66.60;101434.63;5037913;28;47064;-71
2023/08/11 05:11:16;;;;;;;;;15.67;14.67;;;;;21.48;66.59;101454.84;5038687;28;45561;-72
2023/08/11 05:13:42;;;;;;;;;16.67;15.33;;;;;21.36;66.84;101440.06;5037845;28;45535;-72
2023/08/11 05:16:08;;;;;;;;;17.33;16.00;;;;;21.56;66.70;101476.78;5036313;28;45439;-71
2023/08/11 05:18:34;;;;;;;;;19.00;14.67;;;;;21.54;66.29;101450.16;5037562;28;45874;-71
2023/08/11 05:21:00;;;;;;;;;20.00;16.00;;;;;21.47;66.71;101435.28;5036935;28;45519;-70
2023/08/11 05:23:25;;;;;;;;;19.33;15.67;;;;;21.60;66.72;101467.75;5037338;28;45384;-70
2023/08/11 05:26:00;;;;;;;;;15.33;13.33;;;;;21.59;66.82;101463.34;5037274;28;45788;-72
2023/08/11 05:28:25;;;;;;;;;18.67;15.00;;;;;21.72;66.41;101470.03;5035106;28;46998;-72
2023/08/11 05:30:51;;;;;;;;;17.67;15.67;;;;;21.67;66.20;101452.44;5038278;28;45279;-70
2023/08/11 05:33:17;;;;;;;;;15.33;14.67;;;;;21.84;66.23;101467.88;5035686;28;45835;-71
2023/08/11 05:35:42;;;;;;;;;16.67;16.67;;;;;21.76;65.79;101447.69;5037210;28;46002;-71
2023/08/11 05:38:08;;;;;;;;;18.33;16.00;;;;;21.81;65.87;101455.53;5037137;28;46072;-71
2023/08/11 05:40:34;;;;;;;;;14.67;12.33;;;;;21.93;65.65;101468.44;5035876;28;45480;-71
2023/08/11 05:42:59;;;;;;;;;17.00;16.33;;;;;22.04;65.39;101468.06;5036075;28;45486;-71
2023/08/11 05:45:25;;;;;;;;;18.33;15.33;;;;;21.94;65.23;101462.16;5038524;28;45510;-73
2023/08/11 05:47:50;;;;;;;;;15.67;15.00;;;;;21.91;65.48;101451.63;5036362;28;46141;-72
2023/08/11 05:50:16;;;;;;;;;15.00;13.33;;;;;22.03;65.04;101448.53;5036721;28;45496;-71
2023/08/11 05:52:44;;;;;;;;;17.33;12.67;;;;;22.22;64.59;101463.94;5036436;28;45546;-70
2023/08/11 05:55:10;;;;;;;;;13.67;12.33;;;;;22.36;64.35;101472.31;5036568;28;45646;-69
2023/08/11 05:57:36;;;;;;;;;15.67;14.67;;;;;22.50;64.02;101485.19;5036222;28;46131;-73
2023/08/11 06:00:03;;;;;;;;;14.67;14.67;;;;;22.53;63.79;101473.53;5036249;28;45576;-71
2023/08/11 06:02:28;;;;;;;;;20.33;15.67;;;;;22.65;63.71;101473.94;5031289;28;45466;-72
2023/08/11 06:04:54;;;;;;;;;16.00;15.00;;;;;22.43;63.57;101433.81;5048710;28;45687;-71
2023/08/11 06:07:20;;;;;;;;;19.00;18.00;;;;;21.87;63.41;101345.09;5031356;28;46069;-74
2023/08/11 06:09:45;;;;;;;;;18.67;16.33;;;;;22.51;64.07;101481.56;5037939;28;45434;-72
2023/08/11 06:12:11;;;;;;;;;18.67;15.00;;;;;22.50;64.30;101484.31;5037512;28;45595;-73
2023/08/11 06:14:39;;;;;;;;;19.00;17.67;;;;;22.22;63.91;101443.44;5035705;28;45503;-73
2023/08/11 06:17:08;;;;;;;;;19.33;17.33;;;;;22.63;63.99;101488.25;5036790;28;46052;-72
2023/08/11 06:19:33;;;;;;;;;19.00;16.00;;;;;22.67;63.73;101484.56;5050283;28;45505;-74
2023/08/11 06:21:59;;;;;;;;;19.33;16.67;;;;;22.84;63.08;101473.25;5037037;28;45565;-72
2023/08/11 06:24:25;;;;;;;;;18.33;15.67;;;;;22.94;63.10;101473.78;5036217;28;45416;-72
2023/08/11 06:26:51;;;;;;;;;18.33;17.67;;;;;22.91;62.93;101469.41;5031492;28;45464;-71
2023/08/11 06:29:17;;;;;;;;;18.00;16.33;;;;;23.00;62.59;101493.16;5033812;28;45294;-72
2023/08/11 06:31:43;;;;;;;;;19.33;14.67;;;;;23.15;62.39;101486.34;5035693;28;45460;-71
2023/08/11 06:34:09;;;;;;;;;17.00;15.33;;;;;23.20;62.58;101489.69;5036731;28;45491;-71
2023/08/11 06:36:41;;;;;;;;;18.67;16.67;;;;;23.19;62.40;101471.06;5037694;28;45505;-71
2023/08/11 06:39:07;;;;;;;;;15.33;14.33;;;;;23.38;61.98;101488.13;5037220;28;45540;-72
2023/08/11 06:41:33;;;;;;;;;15.33;13.33;;;;;23.15;61.84;101443.59;5035943;28;45418;-72
2023/08/11 06:43:58;;;;;;;;;14.33;14.00;;;;;23.41;61.62;101474.63;5034866;28;45592;-71
2023/08/11 06:46:24;;;;;;;;;15.00;11.67;;;;;23.74;61.31;101494.75;5036109;28;45600;-72
2023/08/11 06:48:50;;;;;;;;;14.67;13.67;;;;;23.70;60.46;101462.78;5035544;28;45418;-72
2023/08/11 06:51:15;;;;;;;;;10.67;10.67;;;;;23.95;60.18;101480.50;5036507;28;45342;-71
2023/08/11 06:53:41;;;;;;;;;11.67;9.67;;;;;24.22;59.49;101493.63;5036568;28;45457;-72
2023/08/11 06:56:06;;;;;;;;;11.67;10.33;;;;;24.39;58.76;101493.75;5036463;28;46391;-71
2023/08/11 06:58:32;;;;;;;;;11.00;10.33;;;;;24.49;58.74;101507.66;5036408;28;45333;-70
2023/08/11 07:00:58;;;;;;;;;12.67;12.67;;;;;24.60;58.31;101508.03;5036106;28;45218;-72
2023/08/11 07:03:23;;;;;;;;;13.00;8.33;;;;;24.36;58.15;101451.06;5035833;28;45800;-71
2023/08/11 07:05:52;;;;;;;;;10.00;10.00;;;;;24.75;58.24;101495.78;5035340;28;45908;-71
2023/08/11 07:08:18;;;;;;;;;13.00;10.00;;;;;24.82;57.59;101501.72;5051143;28;45707;-72
2023/08/11 07:10:44;;;;;;;;;10.67;9.00;;;;;24.94;57.93;101515.44;5035247;28;45679;-72
2023/08/11 07:13:09;;;;;;;;;11.00;9.00;;;;;24.93;57.79;101507.47;5035858;28;45305;-72
2023/08/11 07:15:48;;;;;;;;;10.67;10.33;;;;;24.76;57.94;101481.44;5034152;28;45653;-71
2023/08/11 07:18:13;;;;;;;;;12.00;10.33;;;;;24.98;57.98;101502.75;5033337;28;45641;-72
2023/08/11 07:20:43;;;;;;;;;12.00;10.50;;;;;25.09;57.57;101521.03;5050728;28;45622;-70
2023/08/11 07:23:10;;;;;;;;;14.33;11.00;;;;;25.13;57.39;101517.28;5034947;28;45470;-71
2023/08/11 07:25:36;;;;;;;;;10.25;10.00;;;;;25.30;57.28;101525.41;5034780;28;46176;-72
2023/08/11 07:28:02;;;;;;;;;9.25;9.25;;;;;25.33;57.22;101514.53;5034356;28;45491;-71
2023/08/11 07:30:31;;;;;;;;;9.75;9.75;;;;;25.52;56.82;101511.84;5033854;28;45458;-72
2023/08/11 07:32:57;;;;;;;;;8.75;8.75;;;;;25.87;56.17;101533.44;5035302;28;45440;-71
2023/08/11 07:35:24;;;;;;;;;10.75;9.00;;;;;25.81;56.24;101521.16;5035149;28;45397;-70
2023/08/11 07:37:49;;;;;;;;;10.75;10.00;;;;;25.99;56.05;101550.75;5036399;28;45450;-71
2023/08/11 07:40:16;;;;;;;;;9.75;9.25;;;;;26.00;56.16;101555.16;5036784;28;45341;-69
2023/08/11 07:42:41;;;;;;;;;10.75;10.00;;;;;25.96;55.63;101535.66;5035953;28;45397;-70
2023/08/11 07:45:08;;;;;;;;;13.50;11.00;;;;;25.99;56.16;101561.50;5038114;28;46025;-70
2023/08/11 07:47:33;;;;;;;;;12.75;11.00;;;;;25.95;56.36;101554.53;5040496;28;45410;-71
2023/08/11 07:49:59;;;;;;;;;13.00;13.00;;;;;25.89;56.29;101536.03;5039955;28;45572;-70
2023/08/11 07:52:25;;;;;;;;;11.00;11.00;;;;;26.05;56.08;101554.94;5056151;28;45461;-69
2023/08/11 07:54:50;;;;;;;;;11.25;11.00;;;;;26.08;55.91;101557.44;5039748;28;45559;-70
2023/08/11 07:57:16;;;;;;;;;13.00;9.50;;;;;25.97;56.00;101542.75;5039377;28;45521;-70
2023/08/11 07:59:41;;;;;;;;;12.25;11.00;;;;;26.06;55.97;101552.19;5039830;28;45485;-70
2023/08/11 08:02:07;;;;;;;;;13.75;11.00;;;;;26.03;56.14;101552.34;5039931;28;45449;-70
2023/08/11 08:04:33;;;;;;;;;11.50;9.25;;;;;26.02;56.24;101550.59;5038226;28;45998;-71
2023/08/11 08:06:59;;;;;;;;;13.50;12.25;;;;;26.11;56.18;101555.50;5038337;28;45323;-70
2023/08/11 08:09:28;;;;;;;;;9.25;9.25;;;;;26.20;55.78;101565.78;5037446;28;45543;-70
2023/08/11 08:11:54;;;;;;;;;11.50;11.50;;;;;26.17;55.79;101554.31;5037435;28;45974;-70
2023/08/11 08:14:19;;;;;;;;;12.50;11.00;;;;;26.38;55.76;101563.09;5035249;28;47387;-71
2023/08/11 08:16:45;;;;;;;;;11.00;11.00;;;;;26.31;55.57;101551.78;5039008;28;45312;-71
2023/08/11 08:19:11;;;;;;;;;14.25;13.50;;;;;26.12;55.86;101516.94;5056615;28;45350;-71
2023/08/11 08:21:38;;;;;;;;;11.75;11.00;;;;;26.21;55.57;101521.84;5042395;28;45465;-70
2023/08/11 08:24:07;;;;;;;;;17.50;12.75;;;;;26.42;55.51;101545.88;5039994;28;46435;-70
2023/08/11 08:26:33;;;;;;;;;14.00;14.00;;;;;26.56;55.14;101572.06;5054154;28;45443;-69
2023/08/11 08:29:00;;;;;;;;;13.00;13.00;;;;;26.12;55.23;101474.00;5038516;28;45334;-70
2023/08/11 08:31:27;;;;;;;;;12.00;12.00;;;;;26.76;54.86;101562.94;5038985;28;45358;-70
2023/08/11 08:33:53;;;;;;;;;15.75;13.25;;;;;26.68;55.02;101544.56;5039140;28;45608;-70
2023/08/11 08:36:18;;;;;;;;;12.50;12.50;;;;;26.71;54.88;101552.44;5039041;28;45444;-70
2023/08/11 08:38:44;;;;;;;;;14.25;13.25;;;;;26.74;55.29;101559.47;5037859;28;45480;-69
2023/08/11 08:41:10;;;;;;;;;15.75;15.75;;;;;26.74;54.92;101552.31;5037726;28;45339;-69
2023/08/11 08:43:36;;;;;;;;;14.00;13.25;;;;;26.83;54.73;101556.28;5037650;28;46247;-70
2023/08/11 08:46:06;;;;;;;;;17.25;15.00;;;;;26.86;54.30;101550.75;5036932;28;45661;-71
2023/08/11 08:49:01;;;;;;;;;14.50;14.00;;;;;26.91;54.27;101553.19;5037919;28;46822;-69
2023/08/11 08:51:31;;;;;;;;;13.50;13.50;;;;;26.90;54.11;101551.47;5024843;28;45527;-70
2023/08/11 08:53:57;;;;;;;;;16.50;14.75;;;;;26.81;54.23;101524.16;5035355;28;46830;-68
2023/08/11 08:56:23;;;;;;;;;13.50;13.25;;;;;26.92;54.43;101537.00;5035430;28;45479;-70
2023/08/11 08:58:49;;;;;;;;;15.50;13.75;;;;;26.98;54.53;101546.53;5038589;28;45286;-71
2023/08/11 09:01:15;;;;;;;;;13.50;13.50;;;;;26.89;54.33;101547.06;5036610;28;45561;-69
2023/08/11 09:03:43;;;;;;;;;11.25;11.25;;;;;26.86;54.28;101540.00;5037305;28;45625;-69
2023/08/11 09:06:10;;;;;;;;;12.25;11.00;;;;;27.00;53.91;101561.66;5037193;28;45558;-71
2023/08/11 09:08:39;;;;;;;;;13.00;13.00;;;;;27.06;53.61;101561.31;5037795;28;45432;-71
2023/08/11 09:11:06;;;;;;;;;13.00;13.00;;;;;26.98;53.41;101536.69;5037913;28;45427;-70
2023/08/11 09:13:32;;;;;;;;;12.25;11.25;;;;;27.24;53.50;101558.59;5036838;28;47694;-70
2023/08/11 09:15:57;;;;;;;;;14.00;13.25;;;;;27.33;53.68;101557.22;5036443;28;45429;-71
2023/08/11 09:18:23;;;;;;;;;14.75;13.25;;;;;27.40;53.09;101554.09;5023974;28;45540;-70
2023/08/11 09:20:49;;;;;;;;;13.50;12.00;;;;;27.49;52.89;101558.09;5037699;28;45382;-70
2023/08/11 09:23:18;;;;;;;;;14.25;14.25;;;;;27.56;52.67;101555.94;5036905;28;46739;-70
2023/08/11 09:25:45;;;;;;;;;12.50;12.50;;;;;27.59;52.40;101558.47;5037188;28;45481;-69
2023/08/11 09:28:11;;;;;;;;;15.00;13.75;;;;;27.64;52.37;101561.75;5037509;28;45532;-70
2023/08/11 09:30:38;;;;;;;;;14.00;12.50;;;;;27.62;52.58;101572.63;5037927;28;45485;-69
2023/08/11 09:33:09;;;;;;;;;16.00;14.00;;;;;27.55;52.53;101563.16;5037025;28;46282;-68
2023/08/11 09:35:37;;;;;;;;;14.00;14.00;;;;;27.61;52.46;101576.25;5036008;28;45536;-67
2023/08/11 09:38:08;;;;;;;;;12.75;11.75;;;;;27.48;52.84;101562.63;5025575;28;45922;-66
2023/08/11 09:40:34;;;;;;;;;14.25;13.25;;;;;27.66;52.48;101594.81;5032483;28;45644;-69
2023/08/11 09:43:00;;;;;;;;;15.75;14.75;;;;;27.69;52.67;101591.94;5035101;28;45433;-72
2023/08/11 09:45:26;;;;;;;;;15.50;12.50;;;;;27.82;51.96;101593.00;5034924;28;45499;-69
2023/08/11 09:47:51;;;;;;;;;10.75;10.75;;;;;27.96;51.52;101594.09;5033265;28;45512;-70
2023/08/11 09:50:17;;;;;;;;;12.50;12.50;;;;;28.00;51.18;101576.78;5033876;28;46530;-70
2023/08/11 09:52:43;;;;;;;;;15.50;14.50;;;;;28.05;50.72;101563.94;5033686;28;45452;-70
2023/08/11 09:55:11;;;;;;;;;11.75;11.75;;;;;27.97;50.61;101555.41;5034679;28;45781;-70
2023/08/11 09:57:39;;;;;;;;;15.00;12.25;;;;;28.06;50.49;101565.66;5033788;28;45540;-70
2023/08/11 10:00:11;;;;;;;;;12.00;12.00;;;;;28.22;50.09;101587.19;5034216;28;45485;-71
2023/08/11 10:02:43;;;;;;;;;13.25;13.00;;;;;28.21;50.01;101572.81;5031942;28;47208;-71
2023/08/11 10:05:11;;;;;;;;;14.00;12.00;;;;;28.34;50.26;101592.69;5035261;28;45437;-70
2023/08/11 10:07:41;;;;;;;;;9.50;9.50;;;;;28.51;49.85;101599.81;5031185;28;45363;-69
2023/08/11 10:10:20;;;;;;;;;11.75;11.75;;;;;28.72;49.68;101597.66;5034053;28;45431;-70
2023/08/11 10:13:08;;;;;;;;;12.50;12.50;;;;;28.82;49.37;101594.38;5031238;28;47678;-68
2023/08/11 10:15:34;;;;;;;;;12.25;11.50;;;;;28.92;48.75;101600.94;5032283;28;45471;-68
2023/08/11 10:18:05;;;;;;;;;11.75;10.50;;;;;28.93;48.94;101597.31;5034134;28;45311;-68
2023/08/11 10:20:31;;;;;;;;;11.25;11.00;;;;;28.83;48.61;101561.06;5034898;28;45584;-68
2023/08/11 10:22:57;;;;;;;;;10.25;9.75;;;;;28.92;47.87;101571.28;5033007;28;47940;-69
2023/08/11 10:25:25;;;;;;;;;12.00;9.60;;;;;29.01;48.33;101575.25;5032966;28;45485;-70
2023/08/11 10:27:51;;;;;;;;;10.25;10.25;;;;;28.91;48.79;101551.56;5034178;28;45978;-69
2023/08/11 10:30:18;;;;;;;;;11.00;9.25;;;;;28.96;48.46;101571.00;5030616;28;45890;-70
2023/08/11 10:32:44;;;;;;;;;11.00;11.00;;;;;28.90;48.45;101566.00;5045354;28;46705;-68
2023/08/11 10:35:46;;;;;;;;;13.25;10.50;;;;;29.01;48.08;101577.94;5034387;28;45496;-69
2023/08/11 10:38:12;;;;;;;;;9.75;9.75;;;;;28.98;48.24;101559.28;5030832;28;45689;-70
2023/08/11 10:40:39;;;;;;;;;9.25;9.25;;;;;28.87;48.55;101558.09;5035467;28;45473;-68
2023/08/11 10:43:04;;;;;;;;;11.00;9.75;;;;;29.01;47.88;101572.56;5034265;28;46452;-69
2023/08/11 10:45:34;;;;;;;;;12.75;10.00;;;;;29.01;48.35;101561.75;5033918;28;46562;-69
2023/08/11 10:48:07;;;;;;;;;14.00;10.50;;;;;28.85;47.89;101551.91;5032102;28;45319;-68
2023/08/11 10:50:33;;;;;;;;;11.00;9.50;;;;;28.93;48.36;101565.81;5035992;28;45214;-70
2023/08/11 10:53:22;;;;;;;;;11.00;10.00;;;;;29.00;48.21;101579.78;5031585;28;48130;-70
2023/08/11 10:56:01;;;;;;;;;10.40;10.40;;;;;29.12;47.80;101570.94;5033113;28;45448;-70
2023/08/11 10:58:29;;;;;;;;;10.50;9.00;;;;;29.18;47.76;101573.25;5034650;28;45414;-69
2023/08/11 11:00:56;;;;;;;;;10.50;10.00;;;;;29.30;47.40;101574.28;5034619;28;45435;-70
2023/08/11 11:03:22;;;;;;;;;12.75;10.50;;;;;29.38;47.00;101563.03;5034381;28;46653;-70
2023/08/11 11:05:48;;;;;;;;;11.75;10.00;;;;;29.42;46.72;101569.09;5029652;28;45838;-69
2023/08/11 11:08:13;;;;;;;;;9.75;8.25;;;;;29.43;47.32;101552.81;5034044;28;45455;-68
2023/08/11 11:10:41;;;;;;;;;9.25;9.25;;;;;29.64;46.39;101577.53;5033839;28;45775;-70
2023/08/11 11:13:07;;;;;;;;;11.75;9.75;;;;;29.80;46.57;101577.41;5033100;28;45426;-69